sensor_id;sensor_type;location;lat;lon;timestamp;temperature;humidity
66328;DHT22;53133;52.862;6.602;2023-04-15T15:11:06;9.10;99.90
66328;DHT22;53133;52.862;6.602;2023-04-15T15:13:31;9.20;99.90
66328;DHT22;53133;52.862;6.602;2023-04-15T15:15:57;9.20;99.90
66328;DHT22;53133;52.862;6.602;2023-04-15T15:18:22;9.20;99.90
66328;DHT22;53133;52.862;6.602;2023-04-15T15:20:50;9.20;99.90
66328;DHT22;53133;52.862;6.602;2023-04-15T15:23:15;9.20;99.90
66328;DHT22;53133;52.862;6.602;2023-04-15T15:25:41;9.20;99.90
66328;DHT22;53133;52.862;6.602;2023-04-15T15:28:07;9.20;99.90
66328;DHT22;53133;52.862;6.602;2023-04-15T15:30:32;9.20;99.90
66328;DHT22;53133;52.862;6.602;2023-04-15T15:32:58;9.20;99.90
66328;DHT22;53133;52.862;6.602;2023-04-15T15:35:24;9.10;99.90
66328;DHT22;53133;52.862;6.602;2023-04-15T15:37:50;9.10;99.90
66328;DHT22;53133;52.862;6.602;2023-04-15T15:40:16;9.10;99.90
66328;DHT22;53133;52.862;6.602;2023-04-15T15:42:45;9.10;99.90
66328;DHT22;53133;52.862;6.602;2023-04-15T15:45:14;9.10;99.90
66328;DHT22;53133;52.862;6.602;2023-04-15T15:47:40;9.10;99.90
66328;DHT22;53133;52.862;6.602;2023-04-15T15:50:06;9.10;99.90
66328;DHT22;53133;52.862;6.602;2023-04-15T15:52:32;9.30;99.90
66328;DHT22;53133;52.862;6.602;2023-04-15T15:54:57;9.10;99.90
66328;DHT22;53133;52.862;6.602;2023-04-15T15:57:23;9.10;99.90
66328;DHT22;53133;52.862;6.602;2023-04-15T15:59:48;9.10;99.90
66328;DHT22;53133;52.862;6.602;2023-04-15T16:02:14;9.10;99.90
66328;DHT22;53133;52.862;6.602;2023-04-15T16:04:40;9.10;99.90
66328;DHT22;53133;52.862;6.602;2023-04-15T16:07:08;9.10;99.90
66328;DHT22;53133;52.862;6.602;2023-04-15T16:09:33;9.00;99.90
66328;DHT22;53133;52.862;6.602;2023-04-15T16:11:59;9.00;99.90
66328;DHT22;53133;52.862;6.602;2023-04-15T16:14:26;9.00;99.90
66328;DHT22;53133;52.862;6.602;2023-04-15T16:16:52;9.00;99.90
66328;DHT22;53133;52.862;6.602;2023-04-15T16:19:19;9.00;99.90
66328;DHT22;53133;52.862;6.602;2023-04-15T16:21:45;9.00;99.90
66328;DHT22;53133;52.862;6.602;2023-04-15T16:24:11;8.90;99.90
66328;DHT22;53133;52.862;6.602;2023-04-15T16:26:36;8.90;99.90
66328;DHT22;53133;52.862;6.602;2023-04-15T16:29:02;8.90;99.90
66328;DHT22;53133;52.862;6.602;2023-04-15T16:31:28;8.90;99.90
66328;DHT22;53133;52.862;6.602;2023-04-15T16:33:54;8.90;99.90
66328;DHT22;53133;52.862;6.602;2023-04-15T16:36:19;8.90;99.90
66328;DHT22;53133;52.862;6.602;2023-04-15T16:38:45;8.90;99.90
66328;DHT22;53133;52.862;6.602;2023-04-15T16:41:13;8.90;99.90
66328;DHT22;53133;52.862;6.602;2023-04-15T16:43:39;8.80;99.90
66328;DHT22;53133;52.862;6.602;2023-04-15T16:46:04;8.90;99.90
66328;DHT22;53133;52.862;6.602;2023-04-15T16:48:30;8.90;99.90
66328;DHT22;53133;52.862;6.602;2023-04-15T16:50:56;8.90;99.90
66328;DHT22;53133;52.862;6.602;2023-04-15T16:53:22;8.90;99.90
66328;DHT22;53133;52.862;6.602;2023-04-15T16:55:47;8.90;99.90
66328;DHT22;53133;52.862;6.602;2023-04-15T16:58:13;8.80;99.90
66328;DHT22;53133;52.862;6.602;2023-04-15T17:00:38;8.90;99.90
66328;DHT22;53133;52.862;6.602;2023-04-15T17:03:04;8.90;99.90
66328;DHT22;53133;52.862;6.602;2023-04-15T17:05:30;8.80;99.90
66328;DHT22;53133;52.862;6.602;2023-04-15T17:07:56;8.80;99.90
66328;DHT22;53133;52.862;6.602;2023-04-15T17:10:22;8.80;99.90
66328;DHT22;53133;52.862;6.602;2023-04-15T17:12:47;8.80;99.90
66328;DHT22;53133;52.862;6.602;2023-04-15T17:15:16;8.80;99.90
66328;DHT22;53133;52.862;6.602;2023-04-15T17:17:42;8.80;99.90
66328;DHT22;53133;52.862;6.602;2023-04-15T17:20:08;8.70;99.90
66328;DHT22;53133;52.862;6.602;2023-04-15T17:22:33;8.70;99.90
66328;DHT22;53133;52.862;6.602;2023-04-15T17:24:59;8.70;99.90
66328;DHT22;53133;52.862;6.602;2023-04-15T17:27:25;8.80;99.90
66328;DHT22;53133;52.862;6.602;2023-04-15T17:29:53;8.70;99.90
66328;DHT22;53133;52.862;6.602;2023-04-15T17:32:18;8.70;99.90
66328;DHT22;53133;52.862;6.602;2023-04-15T17:34:44;8.70;99.90
66328;DHT22;53133;52.862;6.602;2023-04-15T17:37:10;8.70;99.90
66328;DHT22;53133;52.862;6.602;2023-04-15T17:39:35;8.70;99.90
66328;DHT22;53133;52.862;6.602;2023-04-15T17:42:01;8.70;99.90
66328;DHT22;53133;52.862;6.602;2023-04-15T17:44:27;8.70;99.90
66328;DHT22;53133;52.862;6.602;2023-04-15T17:46:52;8.60;99.90
66328;DHT22;53133;52.862;6.602;2023-04-15T17:51:55;8.70;99.90
66328;DHT22;53133;52.862;6.602;2023-04-15T18:02:12;8.50;99.90
66328;DHT22;53133;52.862;6.602;2023-04-15T18:04:38;8.60;99.90
66328;DHT22;53133;52.862;6.602;2023-04-15T18:07:04;8.60;99.90
66328;DHT22;53133;52.862;6.602;2023-04-15T18:09:30;8.60;99.90
66328;DHT22;53133;52.862;6.602;2023-04-15T18:11:56;8.50;99.90
66328;DHT22;53133;52.862;6.602;2023-04-15T18:14:22;8.60;99.90
66328;DHT22;53133;52.862;6.602;2023-04-15T18:16:48;8.60;99.90
66328;DHT22;53133;52.862;6.602;2023-04-15T18:19:14;8.60;99.90
66328;DHT22;53133;52.862;6.602;2023-04-15T18:21:40;8.60;99.90
66328;DHT22;53133;52.862;6.602;2023-04-15T18:24:06;8.60;99.90
66328;DHT22;53133;52.862;6.602;2023-04-15T18:26:31;8.60;99.90
66328;DHT22;53133;52.862;6.602;2023-04-15T18:28:57;8.60;99.90
66328;DHT22;53133;52.862;6.602;2023-04-15T18:31:25;8.60;99.90
66328;DHT22;53133;52.862;6.602;2023-04-15T18:33:51;8.60;99.90
66328;DHT22;53133;52.862;6.602;2023-04-15T18:36:16;8.50;99.90
66328;DHT22;53133;52.862;6.602;2023-04-15T18:38:44;8.60;99.90
66328;DHT22;53133;52.862;6.602;2023-04-15T18:41:10;8.60;99.90
66328;DHT22;53133;52.862;6.602;2023-04-15T18:43:35;8.60;99.90
66328;DHT22;53133;52.862;6.602;2023-04-15T18:46:01;8.60;99.90
66328;DHT22;53133;52.862;6.602;2023-04-15T18:48:28;8.60;99.90
66328;DHT22;53133;52.862;6.602;2023-04-15T18:50:54;8.70;99.90
66328;DHT22;53133;52.862;6.602;2023-04-15T18:53:22;8.70;99.90
66328;DHT22;53133;52.862;6.602;2023-04-15T18:55:48;8.70;99.90
66328;DHT22;53133;52.862;6.602;2023-04-15T18:58:14;8.70;99.90
